sensor_id;sensor_type;location;lat;lon;timestamp;P1;P2;P0
80639;PMS5003;69992;60.170;24.692;2023-05-07T00:00:10;4;4;
80639;PMS5003;69992;60.170;24.692;2023-05-07T00:02:35;4;4;
80639;PMS5003;69992;60.170;24.692;2023-05-07T00:05:00;4;4;
80639;PMS5003;69992;60.170;24.692;2023-05-07T00:07:26;5;4;
80639;PMS5003;69992;60.170;24.692;2023-05-07T00:09:51;5;3;
80639;PMS5003;69992;60.170;24.692;2023-05-07T00:12:17;5;5;
80639;PMS5003;69992;60.170;24.692;2023-05-07T00:14:42;4;4;
80639;PMS5003;69992;60.170;24.692;2023-05-07T00:17:08;4;4;
80639;PMS5003;69992;60.170;24.692;2023-05-07T00:19:33;4;4;
80639;PMS5003;69992;60.170;24.692;2023-05-07T00:21:59;4;4;
80639;PMS5003;69992;60.170;24.692;2023-05-07T00:24:24;3;3;
80639;PMS5003;69992;60.170;24.692;2023-05-07T00:26:50;5;5;
80639;PMS5003;69992;60.170;24.692;2023-05-07T00:29:15;3;3;
80639;PMS5003;69992;60.170;24.692;2023-05-07T00:31:41;5;5;
80639;PMS5003;69992;60.170;24.692;2023-05-07T00:34:05;4;3;
80639;PMS5003;69992;60.170;24.692;2023-05-07T00:36:31;4;4;
80639;PMS5003;69992;60.170;24.692;2023-05-07T00:38:57;3;3;
80639;PMS5003;69992;60.170;24.692;2023-05-07T00:41:22;4;4;
80639;PMS5003;69992;60.170;24.692;2023-05-07T00:43:47;3;3;
80639;PMS5003;69992;60.170;24.692;2023-05-07T00:46:13;5;5;
80639;PMS5003;69992;60.170;24.692;2023-05-07T00:48:38;5;5;
80639;PMS5003;69992;60.170;24.692;2023-05-07T00:51:05;5;4;
80639;PMS5003;69992;60.170;24.692;2023-05-07T00:53:29;5;4;
80639;PMS5003;69992;60.170;24.692;2023-05-07T00:55:55;4;4;
80639;PMS5003;69992;60.170;24.692;2023-05-07T00:58:20;4;4;
80639;PMS5003;69992;60.170;24.692;2023-05-07T01:00:46;4;4;
80639;PMS5003;69992;60.170;24.692;2023-05-07T01:03:11;5;5;
80639;PMS5003;69992;60.170;24.692;2023-05-07T01:05:37;4;3;
80639;PMS5003;69992;60.170;24.692;2023-05-07T01:08:02;4;4;
80639;PMS5003;69992;60.170;24.692;2023-05-07T01:10:28;7;7;
80639;PMS5003;69992;60.170;24.692;2023-05-07T01:12:53;3;3;
80639;PMS5003;69992;60.170;24.692;2023-05-07T01:15:19;4;4;
80639;PMS5003;69992;60.170;24.692;2023-05-07T01:17:44;4;3;
80639;PMS5003;69992;60.170;24.692;2023-05-07T01:20:10;4;4;
80639;PMS5003;69992;60.170;24.692;2023-05-07T01:22:35;3;3;
80639;PMS5003;69992;60.170;24.692;2023-05-07T01:25:00;4;4;
80639;PMS5003;69992;60.170;24.692;2023-05-07T01:27:26;8;7;
80639;PMS5003;69992;60.170;24.692;2023-05-07T01:29:51;3;3;
80639;PMS5003;69992;60.170;24.692;2023-05-07T01:32:15;4;3;
80639;PMS5003;69992;60.170;24.692;2023-05-07T01:34:41;7;4;
80639;PMS5003;69992;60.170;24.692;2023-05-07T01:37:06;4;3;
80639;PMS5003;69992;60.170;24.692;2023-05-07T01:39:31;5;4;
80639;PMS5003;69992;60.170;24.692;2023-05-07T01:41:56;4;4;
80639;PMS5003;69992;60.170;24.692;2023-05-07T01:44:21;4;3;
80639;PMS5003;69992;60.170;24.692;2023-05-07T01:46:46;2;2;
80639;PMS5003;69992;60.170;24.692;2023-05-07T01:49:11;4;4;
80639;PMS5003;69992;60.170;24.692;2023-05-07T01:51:36;4;4;
80639;PMS5003;69992;60.170;24.692;2023-05-07T01:54:02;3;3;
80639;PMS5003;69992;60.170;24.692;2023-05-07T01:56:27;5;4;
80639;PMS5003;69992;60.170;24.692;2023-05-07T01:58:52;4;3;
80639;PMS5003;69992;60.170;24.692;2023-05-07T02:01:17;3;3;
80639;PMS5003;69992;60.170;24.692;2023-05-07T02:03:42;7;5;
80639;PMS5003;69992;60.170;24.692;2023-05-07T02:06:07;4;3;
80639;PMS5003;69992;60.170;24.692;2023-05-07T02:08:32;5;4;
80639;PMS5003;69992;60.170;24.692;2023-05-07T02:10:58;7;7;
80639;PMS5003;69992;60.170;24.692;2023-05-07T02:13:23;3;3;
80639;PMS5003;69992;60.170;24.692;2023-05-07T02:15:48;5;5;
80639;PMS5003;69992;60.170;24.692;2023-05-07T02:18:13;4;4;
80639;PMS5003;69992;60.170;24.692;2023-05-07T02:20:39;5;4;
80639;PMS5003;69992;60.170;24.692;2023-05-07T02:23:04;5;5;
80639;PMS5003;69992;60.170;24.692;2023-05-07T02:25:29;3;3;
80639;PMS5003;69992;60.170;24.692;2023-05-07T02:27:54;4;4;
80639;PMS5003;69992;60.170;24.692;2023-05-07T02:30:19;3;3;
80639;PMS5003;69992;60.170;24.692;2023-05-07T02:32:44;5;5;
80639;PMS5003;69992;60.170;24.692;2023-05-07T02:35:09;4;4;
80639;PMS5003;69992;60.170;24.692;2023-05-07T02:37:34;4;4;
80639;PMS5003;69992;60.170;24.692;2023-05-07T02:39:59;4;4;
80639;PMS5003;69992;60.170;24.692;2023-05-07T02:42:24;4;4;
80639;PMS5003;69992;60.170;24.692;2023-05-07T02:44:49;3;3;
80639;PMS5003;69992;60.170;24.692;2023-05-07T02:47:14;4;4;
80639;PMS5003;69992;60.170;24.692;2023-05-07T02:49:39;7;5;
80639;PMS5003;69992;60.170;24.692;2023-05-07T02:52:04;7;5;
80639;PMS5003;69992;60.170;24.692;2023-05-07T02:54:29;4;4;
80639;PMS5003;69992;60.170;24.692;2023-05-07T02:56:54;7;4;
80639;PMS5003;69992;60.170;24.692;2023-05-07T02:59:19;3;3;
80639;PMS5003;69992;60.170;24.692;2023-05-07T03:01:44;3;3;
80639;PMS5003;69992;60.170;24.692;2023-05-07T03:04:09;7;4;
80639;PMS5003;69992;60.170;24.692;2023-05-07T03:06:34;5;4;
80639;PMS5003;69992;60.170;24.692;2023-05-07T03:09:00;7;4;
80639;PMS5003;69992;60.170;24.692;2023-05-07T03:11:25;4;4;
80639;PMS5003;69992;60.170;24.692;2023-05-07T03:13:50;5;5;
80639;PMS5003;69992;60.170;24.692;2023-05-07T03:16:15;6;6;
80639;PMS5003;69992;60.170;24.692;2023-05-07T03:18:40;2;2;
80639;PMS5003;69992;60.170;24.692;2023-05-07T03:21:05;4;4;
80639;PMS5003;69992;60.170;24.692;2023-05-07T03:23:30;4;4;
80639;PMS5003;69992;60.170;24.692;2023-05-07T03:25:56;5;5;
80639;PMS5003;69992;60.170;24.692;2023-05-07T03:28:21;3;3;
80639;PMS5003;69992;60.170;24.692;2023-05-07T03:30:47;4;3;
80639;PMS5003;69992;60.170;24.692;2023-05-07T03:33:12;4;3;
80639;PMS5003;69992;60.170;24.692;2023-05-07T03:35:38;5;5;
80639;PMS5003;69992;60.170;24.692;2023-05-07T03:38:03;4;4;
80639;PMS5003;69992;60.170;24.692;2023-05-07T03:40:29;4;4;
80639;PMS5003;69992;60.170;24.692;2023-05-07T03:42:54;5;5;
80639;PMS5003;69992;60.170;24.692;2023-05-07T03:45:20;5;4;
80639;PMS5003;69992;60.170;24.692;2023-05-07T03:47:45;4;3;
80639;PMS5003;69992;60.170;24.692;2023-05-07T03:50:11;5;4;
80639;PMS5003;69992;60.170;24.692;2023-05-07T03:52:36;4;4;
80639;PMS5003;69992;60.170;24.692;2023-05-07T03:55:02;5;4;
80639;PMS5003;69992;60.170;24.692;2023-05-07T03:57:27;4;4;
80639;PMS5003;69992;60.170;24.692;2023-05-07T03:59:53;4;3;
80639;PMS5003;69992;60.170;24.692;2023-05-07T04:02:18;4;4;
80639;PMS5003;69992;60.170;24.692;2023-05-07T04:04:43;5;4;
80639;PMS5003;69992;60.170;24.692;2023-05-07T04:07:09;4;4;
80639;PMS5003;69992;60.170;24.692;2023-05-07T04:09:34;4;4;
80639;PMS5003;69992;60.170;24.692;2023-05-07T04:11:59;3;3;
80639;PMS5003;69992;60.170;24.692;2023-05-07T04:14:25;4;4;
80639;PMS5003;69992;60.170;24.692;2023-05-07T04:16:50;4;4;
80639;PMS5003;69992;60.170;24.692;2023-05-07T04:19:16;5;4;
80639;PMS5003;69992;60.170;24.692;2023-05-07T04:21:41;3;3;
80639;PMS5003;69992;60.170;24.692;2023-05-07T04:24:07;3;3;
80639;PMS5003;69992;60.170;24.692;2023-05-07T04:26:32;3;3;
80639;PMS5003;69992;60.170;24.692;2023-05-07T04:28:58;5;5;
80639;PMS5003;69992;60.170;24.692;2023-05-07T04:31:23;3;3;
80639;PMS5003;69992;60.170;24.692;2023-05-07T04:33:49;4;4;
80639;PMS5003;69992;60.170;24.692;2023-05-07T04:36:14;5;4;
80639;PMS5003;69992;60.170;24.692;2023-05-07T04:38:40;4;4;
80639;PMS5003;69992;60.170;24.692;2023-05-07T04:41:05;3;3;
80639;PMS5003;69992;60.170;24.692;2023-05-07T04:43:30;3;3;
80639;PMS5003;69992;60.170;24.692;2023-05-07T04:45:55;3;3;
80639;PMS5003;69992;60.170;24.692;2023-05-07T04:48:21;3;3;
80639;PMS5003;69992;60.170;24.692;2023-05-07T04:50:47;3;3;
80639;PMS5003;69992;60.170;24.692;2023-05-07T04:53:12;4;4;
80639;PMS5003;69992;60.170;24.692;2023-05-07T04:55:37;3;3;
80639;PMS5003;69992;60.170;24.692;2023-05-07T04:58:03;3;3;
80639;PMS5003;69992;60.170;24.692;2023-05-07T05:00:28;3;3;
80639;PMS5003;69992;60.170;24.692;2023-05-07T05:02:54;3;3;
80639;PMS5003;69992;60.170;24.692;2023-05-07T05:05:19;3;3;
80639;PMS5003;69992;60.170;24.692;2023-05-07T05:07:45;5;3;
80639;PMS5003;69992;60.170;24.692;2023-05-07T05:10:11;4;3;
80639;PMS5003;69992;60.170;24.692;2023-05-07T05:12:37;3;3;
80639;PMS5003;69992;60.170;24.692;2023-05-07T05:15:03;3;3;
80639;PMS5003;69992;60.170;24.692;2023-05-07T05:17:29;2;2;
80639;PMS5003;69992;60.170;24.692;2023-05-07T05:19:54;4;4;
80639;PMS5003;69992;60.170;24.692;2023-05-07T05:22:20;3;3;
80639;PMS5003;69992;60.170;24.692;2023-05-07T05:24:46;5;5;
80639;PMS5003;69992;60.170;24.692;2023-05-07T05:27:12;4;4;
80639;PMS5003;69992;60.170;24.692;2023-05-07T05:29:38;4;4;
80639;PMS5003;69992;60.170;24.692;2023-05-07T05:32:03;3;3;
80639;PMS5003;69992;60.170;24.692;2023-05-07T05:34:29;2;2;
80639;PMS5003;69992;60.170;24.692;2023-05-07T05:36:55;2;2;
80639;PMS5003;69992;60.170;24.692;2023-05-07T05:39:21;2;2;
80639;PMS5003;69992;60.170;24.692;2023-05-07T05:41:47;3;2;
80639;PMS5003;69992;60.170;24.692;2023-05-07T05:44:12;3;3;
80639;PMS5003;69992;60.170;24.692;2023-05-07T05:46:38;2;2;
80639;PMS5003;69992;60.170;24.692;2023-05-07T05:49:04;3;3;
80639;PMS5003;69992;60.170;24.692;2023-05-07T05:51:30;4;4;
80639;PMS5003;69992;60.170;24.692;2023-05-07T05:53:55;2;2;
80639;PMS5003;69992;60.170;24.692;2023-05-07T05:56:21;2;2;
80639;PMS5003;69992;60.170;24.692;2023-05-07T05:58:47;2;2;
80639;PMS5003;69992;60.170;24.692;2023-05-07T06:01:13;3;2;
80639;PMS5003;69992;60.170;24.692;2023-05-07T06:03:39;1;1;
80639;PMS5003;69992;60.170;24.692;2023-05-07T06:06:04;2;2;
80639;PMS5003;69992;60.170;24.692;2023-05-07T06:08:30;2;2;
80639;PMS5003;69992;60.170;24.692;2023-05-07T06:10:56;2;2;
80639;PMS5003;69992;60.170;24.692;2023-05-07T06:13:22;1;1;
80639;PMS5003;69992;60.170;24.692;2023-05-07T06:15:48;2;2;
80639;PMS5003;69992;60.170;24.692;2023-05-07T06:18:13;1;1;
80639;PMS5003;69992;60.170;24.692;2023-05-07T06:20:39;2;2;
80639;PMS5003;69992;60.170;24.692;2023-05-07T06:23:05;2;2;
80639;PMS5003;69992;60.170;24.692;2023-05-07T06:25:31;1;1;
80639;PMS5003;69992;60.170;24.692;2023-05-07T06:27:56;2;2;
80639;PMS5003;69992;60.170;24.692;2023-05-07T06:30:22;3;2;
80639;PMS5003;69992;60.170;24.692;2023-05-07T06:32:48;2;2;
80639;PMS5003;69992;60.170;24.692;2023-05-07T06:35:13;3;3;
80639;PMS5003;69992;60.170;24.692;2023-05-07T06:37:40;1;1;
80639;PMS5003;69992;60.170;24.692;2023-05-07T06:40:05;1;1;
80639;PMS5003;69992;60.170;24.692;2023-05-07T06:42:31;2;2;
80639;PMS5003;69992;60.170;24.692;2023-05-07T06:44:56;2;2;
80639;PMS5003;69992;60.170;24.692;2023-05-07T06:47:22;2;2;
80639;PMS5003;69992;60.170;24.692;2023-05-07T06:49:48;1;1;
80639;PMS5003;69992;60.170;24.692;2023-05-07T06:52:14;2;1;
80639;PMS5003;69992;60.170;24.692;2023-05-07T06:54:39;1;1;
80639;PMS5003;69992;60.170;24.692;2023-05-07T06:57:05;1;1;
80639;PMS5003;69992;60.170;24.692;2023-05-07T06:59:31;1;1;
80639;PMS5003;69992;60.170;24.692;2023-05-07T07:01:56;2;2;
80639;PMS5003;69992;60.170;24.692;2023-05-07T07:04:22;2;2;
80639;PMS5003;69992;60.170;24.692;2023-05-07T07:06:48;3;2;
80639;PMS5003;69992;60.170;24.692;2023-05-07T07:09:14;1;1;
80639;PMS5003;69992;60.170;24.692;2023-05-07T07:11:39;1;1;
80639;PMS5003;69992;60.170;24.692;2023-05-07T07:14:05;2;2;
80639;PMS5003;69992;60.170;24.692;2023-05-07T07:16:31;1;1;
80639;PMS5003;69992;60.170;24.692;2023-05-07T07:18:56;1;1;
80639;PMS5003;69992;60.170;24.692;2023-05-07T07:21:22;1;1;
80639;PMS5003;69992;60.170;24.692;2023-05-07T07:23:48;1;1;
80639;PMS5003;69992;60.170;24.692;2023-05-07T07:26:14;3;2;
80639;PMS5003;69992;60.170;24.692;2023-05-07T07:28:43;2;2;
80639;PMS5003;69992;60.170;24.692;2023-05-07T07:31:05;1;1;
80639;PMS5003;69992;60.170;24.692;2023-05-07T07:33:31;2;1;
80639;PMS5003;69992;60.170;24.692;2023-05-07T07:35:56;2;2;
80639;PMS5003;69992;60.170;24.692;2023-05-07T07:38:22;1;1;
80639;PMS5003;69992;60.170;24.692;2023-05-07T07:40:48;1;1;
80639;PMS5003;69992;60.170;24.692;2023-05-07T07:43:13;2;2;
80639;PMS5003;69992;60.170;24.692;2023-05-07T07:45:39;1;1;
80639;PMS5003;69992;60.170;24.692;2023-05-07T07:48:05;1;0;
80639;PMS5003;69992;60.170;24.692;2023-05-07T07:50:30;1;1;
80639;PMS5003;69992;60.170;24.692;2023-05-07T07:52:56;2;2;
80639;PMS5003;69992;60.170;24.692;2023-05-07T07:55:22;2;2;
80639;PMS5003;69992;60.170;24.692;2023-05-07T07:57:47;3;3;
80639;PMS5003;69992;60.170;24.692;2023-05-07T08:00:14;1;1;
80639;PMS5003;69992;60.170;24.692;2023-05-07T08:02:39;2;2;
80639;PMS5003;69992;60.170;24.692;2023-05-07T08:05:05;1;1;
80639;PMS5003;69992;60.170;24.692;2023-05-07T08:07:30;2;2;
80639;PMS5003;69992;60.170;24.692;2023-05-07T08:09:56;3;3;
80639;PMS5003;69992;60.170;24.692;2023-05-07T08:12:21;2;2;
80639;PMS5003;69992;60.170;24.692;2023-05-07T08:14:47;3;2;
80639;PMS5003;69992;60.170;24.692;2023-05-07T08:17:13;3;3;
80639;PMS5003;69992;60.170;24.692;2023-05-07T08:19:38;2;1;
80639;PMS5003;69992;60.170;24.692;2023-05-07T08:22:04;2;2;
80639;PMS5003;69992;60.170;24.692;2023-05-07T08:24:30;1;1;
80639;PMS5003;69992;60.170;24.692;2023-05-07T08:26:55;2;2;
80639;PMS5003;69992;60.170;24.692;2023-05-07T08:29:21;1;1;
80639;PMS5003;69992;60.170;24.692;2023-05-07T08:31:47;2;2;
80639;PMS5003;69992;60.170;24.692;2023-05-07T08:34:12;2;1;
80639;PMS5003;69992;60.170;24.692;2023-05-07T08:36:38;0;0;
80639;PMS5003;69992;60.170;24.692;2023-05-07T08:39:04;2;2;
80639;PMS5003;69992;60.170;24.692;2023-05-07T08:41:30;1;1;
80639;PMS5003;69992;60.170;24.692;2023-05-07T08:43:55;2;2;
80639;PMS5003;69992;60.170;24.692;2023-05-07T08:46:21;1;0;
80639;PMS5003;69992;60.170;24.692;2023-05-07T08:48:47;1;1;
80639;PMS5003;69992;60.170;24.692;2023-05-07T08:51:12;3;3;
80639;PMS5003;69992;60.170;24.692;2023-05-07T08:53:38;1;1;
80639;PMS5003;69992;60.170;24.692;2023-05-07T08:56:03;2;2;
80639;PMS5003;69992;60.170;24.692;2023-05-07T08:58:29;3;3;
80639;PMS5003;69992;60.170;24.692;2023-05-07T09:00:54;2;1;
80639;PMS5003;69992;60.170;24.692;2023-05-07T09:03:21;2;1;
80639;PMS5003;69992;60.170;24.692;2023-05-07T09:05:46;1;1;
80639;PMS5003;69992;60.170;24.692;2023-05-07T09:08:14;2;2;
80639;PMS5003;69992;60.170;24.692;2023-05-07T09:10:37;1;1;
80639;PMS5003;69992;60.170;24.692;2023-05-07T09:13:03;2;2;
80639;PMS5003;69992;60.170;24.692;2023-05-07T09:15:28;1;1;
80639;PMS5003;69992;60.170;24.692;2023-05-07T09:17:54;0;0;
80639;PMS5003;69992;60.170;24.692;2023-05-07T09:20:19;2;2;
80639;PMS5003;69992;60.170;24.692;2023-05-07T09:22:45;2;2;
80639;PMS5003;69992;60.170;24.692;2023-05-07T09:25:11;1;1;
80639;PMS5003;69992;60.170;24.692;2023-05-07T09:27:36;1;1;
80639;PMS5003;69992;60.170;24.692;2023-05-07T09:30:03;2;2;
80639;PMS5003;69992;60.170;24.692;2023-05-07T09:32:27;2;2;
80639;PMS5003;69992;60.170;24.692;2023-05-07T09:34:53;1;1;
80639;PMS5003;69992;60.170;24.692;2023-05-07T09:37:18;1;1;
80639;PMS5003;69992;60.170;24.692;2023-05-07T09:39:44;2;1;
80639;PMS5003;69992;60.170;24.692;2023-05-07T09:42:10;0;0;
80639;PMS5003;69992;60.170;24.692;2023-05-07T09:44:35;2;2;
80639;PMS5003;69992;60.170;24.692;2023-05-07T09:47:01;1;1;
80639;PMS5003;69992;60.170;24.692;2023-05-07T09:49:28;2;2;
80639;PMS5003;69992;60.170;24.692;2023-05-07T09:51:52;1;1;
80639;PMS5003;69992;60.170;24.692;2023-05-07T09:54:17;0;0;
80639;PMS5003;69992;60.170;24.692;2023-05-07T09:56:43;2;2;
80639;PMS5003;69992;60.170;24.692;2023-05-07T09:59:08;1;0;
80639;PMS5003;69992;60.170;24.692;2023-05-07T10:01:34;2;1;
80639;PMS5003;69992;60.170;24.692;2023-05-07T10:03:59;1;1;
80639;PMS5003;69992;60.170;24.692;2023-05-07T10:06:24;1;1;
80639;PMS5003;69992;60.170;24.692;2023-05-07T10:08:50;1;1;
80639;PMS5003;69992;60.170;24.692;2023-05-07T10:11:15;3;2;
80639;PMS5003;69992;60.170;24.692;2023-05-07T10:13:41;1;1;
80639;PMS5003;69992;60.170;24.692;2023-05-07T10:16:06;2;2;
80639;PMS5003;69992;60.170;24.692;2023-05-07T10:18:32;2;2;
80639;PMS5003;69992;60.170;24.692;2023-05-07T10:20:57;1;1;
80639;PMS5003;69992;60.170;24.692;2023-05-07T10:23:23;1;1;
80639;PMS5003;69992;60.170;24.692;2023-05-07T10:25:48;3;2;
80639;PMS5003;69992;60.170;24.692;2023-05-07T10:28:13;1;1;
80639;PMS5003;69992;60.170;24.692;2023-05-07T10:30:44;3;2;
80639;PMS5003;69992;60.170;24.692;2023-05-07T10:33:04;2;2;
80639;PMS5003;69992;60.170;24.692;2023-05-07T10:35:30;0;0;
80639;PMS5003;69992;60.170;24.692;2023-05-07T10:37:54;2;2;
80639;PMS5003;69992;60.170;24.692;2023-05-07T10:40:21;2;2;
80639;PMS5003;69992;60.170;24.692;2023-05-07T10:42:55;1;1;
80639;PMS5003;69992;60.170;24.692;2023-05-07T10:45:11;2;2;
80639;PMS5003;69992;60.170;24.692;2023-05-07T10:47:36;1;1;
80639;PMS5003;69992;60.170;24.692;2023-05-07T10:52:27;2;2;
80639;PMS5003;69992;60.170;24.692;2023-05-07T10:59:43;2;2;
80639;PMS5003;69992;60.170;24.692;2023-05-07T11:02:09;1;1;
80639;PMS5003;69992;60.170;24.692;2023-05-07T11:04:34;2;2;
80639;PMS5003;69992;60.170;24.692;2023-05-07T11:09:26;2;1;
80639;PMS5003;69992;60.170;24.692;2023-05-07T11:11:51;3;3;
80639;PMS5003;69992;60.170;24.692;2023-05-07T11:16:42;2;2;
80639;PMS5003;69992;60.170;24.692;2023-05-07T11:19:07;2;2;
80639;PMS5003;69992;60.170;24.692;2023-05-07T11:21:33;2;2;
80639;PMS5003;69992;60.170;24.692;2023-05-07T11:23:58;2;2;
80639;PMS5003;69992;60.170;24.692;2023-05-07T11:26:24;3;3;
80639;PMS5003;69992;60.170;24.692;2023-05-07T11:28:49;2;2;
80639;PMS5003;69992;60.170;24.692;2023-05-07T11:31:15;1;1;
80639;PMS5003;69992;60.170;24.692;2023-05-07T11:33:40;1;1;
80639;PMS5003;69992;60.170;24.692;2023-05-07T11:36:08;2;2;
80639;PMS5003;69992;60.170;24.692;2023-05-07T11:38:34;1;1;
80639;PMS5003;69992;60.170;24.692;2023-05-07T11:40:58;2;2;
80639;PMS5003;69992;60.170;24.692;2023-05-07T11:43:22;1;1;
80639;PMS5003;69992;60.170;24.692;2023-05-07T11:45:48;3;3;
80639;PMS5003;69992;60.170;24.692;2023-05-07T11:48:14;3;3;
80639;PMS5003;69992;60.170;24.692;2023-05-07T11:53:07;1;1;
80639;PMS5003;69992;60.170;24.692;2023-05-07T11:55:30;1;1;
80639;PMS5003;69992;60.170;24.692;2023-05-07T11:57:56;1;1;
80639;PMS5003;69992;60.170;24.692;2023-05-07T12:00:21;1;1;
80639;PMS5003;69992;60.170;24.692;2023-05-07T12:02:47;1;1;
80639;PMS5003;69992;60.170;24.692;2023-05-07T12:05:12;1;1;
80639;PMS5003;69992;60.170;24.692;2023-05-07T12:07:38;1;1;
80639;PMS5003;69992;60.170;24.692;2023-05-07T12:10:04;2;2;
80639;PMS5003;69992;60.170;24.692;2023-05-07T12:12:29;2;2;
80639;PMS5003;69992;60.170;24.692;2023-05-07T12:14:54;0;0;
80639;PMS5003;69992;60.170;24.692;2023-05-07T12:17:20;1;1;
80639;PMS5003;69992;60.170;24.692;2023-05-07T12:19:45;3;3;
80639;PMS5003;69992;60.170;24.692;2023-05-07T12:22:11;2;2;
80639;PMS5003;69992;60.170;24.692;2023-05-07T12:24:43;2;2;
80639;PMS5003;69992;60.170;24.692;2023-05-07T12:27:02;1;1;
80639;PMS5003;69992;60.170;24.692;2023-05-07T12:29:27;1;1;
80639;PMS5003;69992;60.170;24.692;2023-05-07T12:31:53;2;2;
80639;PMS5003;69992;60.170;24.692;2023-05-07T12:34:18;3;3;
80639;PMS5003;69992;60.170;24.692;2023-05-07T12:36:44;1;1;
80639;PMS5003;69992;60.170;24.692;2023-05-07T12:39:09;1;1;
80639;PMS5003;69992;60.170;24.692;2023-05-07T12:41:36;3;3;
80639;PMS5003;69992;60.170;24.692;2023-05-07T12:44:00;1;1;
80639;PMS5003;69992;60.170;24.692;2023-05-07T12:46:25;1;1;
80639;PMS5003;69992;60.170;24.692;2023-05-07T12:48:51;2;2;
80639;PMS5003;69992;60.170;24.692;2023-05-07T12:51:16;1;1;
80639;PMS5003;69992;60.170;24.692;2023-05-07T12:53:42;1;1;
80639;PMS5003;69992;60.170;24.692;2023-05-07T12:56:07;2;1;
80639;PMS5003;69992;60.170;24.692;2023-05-07T12:58:33;2;2;
80639;PMS5003;69992;60.170;24.692;2023-05-07T13:00:58;2;2;
80639;PMS5003;69992;60.170;24.692;2023-05-07T13:03:24;1;1;
80639;PMS5003;69992;60.170;24.692;2023-05-07T13:05:48;2;2;
80639;PMS5003;69992;60.170;24.692;2023-05-07T13:10:39;3;2;
80639;PMS5003;69992;60.170;24.692;2023-05-07T13:13:05;2;2;
80639;PMS5003;69992;60.170;24.692;2023-05-07T13:15:30;2;2;
80639;PMS5003;69992;60.170;24.692;2023-05-07T13:17:55;2;2;
80639;PMS5003;69992;60.170;24.692;2023-05-07T13:20:21;1;1;
80639;PMS5003;69992;60.170;24.692;2023-05-07T13:22:46;2;2;
80639;PMS5003;69992;60.170;24.692;2023-05-07T13:25:11;2;2;
80639;PMS5003;69992;60.170;24.692;2023-05-07T13:27:37;0;0;
80639;PMS5003;69992;60.170;24.692;2023-05-07T13:30:03;1;1;
80639;PMS5003;69992;60.170;24.692;2023-05-07T13:32:27;2;2;
80639;PMS5003;69992;60.170;24.692;2023-05-07T13:34:53;0;0;
80639;PMS5003;69992;60.170;24.692;2023-05-07T13:37:18;1;1;
80639;PMS5003;69992;60.170;24.692;2023-05-07T13:39:43;1;1;
80639;PMS5003;69992;60.170;24.692;2023-05-07T13:42:09;1;1;
80639;PMS5003;69992;60.170;24.692;2023-05-07T13:44:34;1;1;
80639;PMS5003;69992;60.170;24.692;2023-05-07T13:46:59;1;1;
80639;PMS5003;69992;60.170;24.692;2023-05-07T13:49:25;3;2;
80639;PMS5003;69992;60.170;24.692;2023-05-07T13:51:50;2;1;
80639;PMS5003;69992;60.170;24.692;2023-05-07T13:54:15;1;1;
80639;PMS5003;69992;60.170;24.692;2023-05-07T13:56:41;2;2;
80639;PMS5003;69992;60.170;24.692;2023-05-07T13:59:06;0;0;
80639;PMS5003;69992;60.170;24.692;2023-05-07T14:01:32;1;1;
80639;PMS5003;69992;60.170;24.692;2023-05-07T14:03:57;0;0;
80639;PMS5003;69992;60.170;24.692;2023-05-07T14:06:22;2;1;
80639;PMS5003;69992;60.170;24.692;2023-05-07T14:08:48;2;2;
80639;PMS5003;69992;60.170;24.692;2023-05-07T14:11:13;2;2;
80639;PMS5003;69992;60.170;24.692;2023-05-07T14:13:38;1;1;
80639;PMS5003;69992;60.170;24.692;2023-05-07T14:16:04;1;1;
80639;PMS5003;69992;60.170;24.692;2023-05-07T14:18:29;0;0;
80639;PMS5003;69992;60.170;24.692;2023-05-07T14:20:54;2;2;
80639;PMS5003;69992;60.170;24.692;2023-05-07T14:23:20;1;1;
80639;PMS5003;69992;60.170;24.692;2023-05-07T14:25:45;1;1;
80639;PMS5003;69992;60.170;24.692;2023-05-07T14:28:11;0;0;
80639;PMS5003;69992;60.170;24.692;2023-05-07T14:30:36;2;2;
80639;PMS5003;69992;60.170;24.692;2023-05-07T14:33:01;1;1;
80639;PMS5003;69992;60.170;24.692;2023-05-07T14:35:27;3;1;
80639;PMS5003;69992;60.170;24.692;2023-05-07T14:37:52;2;2;
80639;PMS5003;69992;60.170;24.692;2023-05-07T14:40:17;2;2;
80639;PMS5003;69992;60.170;24.692;2023-05-07T14:42:43;2;2;
80639;PMS5003;69992;60.170;24.692;2023-05-07T14:45:09;1;1;
80639;PMS5003;69992;60.170;24.692;2023-05-07T14:47:34;2;2;
80639;PMS5003;69992;60.170;24.692;2023-05-07T14:49:59;2;2;
80639;PMS5003;69992;60.170;24.692;2023-05-07T14:52:24;1;1;
80639;PMS5003;69992;60.170;24.692;2023-05-07T14:54:50;1;1;
80639;PMS5003;69992;60.170;24.692;2023-05-07T14:57:15;1;1;
80639;PMS5003;69992;60.170;24.692;2023-05-07T14:59:41;1;1;
80639;PMS5003;69992;60.170;24.692;2023-05-07T15:02:06;2;2;
80639;PMS5003;69992;60.170;24.692;2023-05-07T15:04:32;2;2;
80639;PMS5003;69992;60.170;24.692;2023-05-07T15:06:57;1;1;
80639;PMS5003;69992;60.170;24.692;2023-05-07T15:09:22;2;2;
80639;PMS5003;69992;60.170;24.692;2023-05-07T15:11:48;2;2;
80639;PMS5003;69992;60.170;24.692;2023-05-07T15:14:13;1;1;
80639;PMS5003;69992;60.170;24.692;2023-05-07T15:16:39;2;2;
80639;PMS5003;69992;60.170;24.692;2023-05-07T15:19:04;0;0;
80639;PMS5003;69992;60.170;24.692;2023-05-07T15:21:30;1;1;
80639;PMS5003;69992;60.170;24.692;2023-05-07T15:23:55;1;1;
80639;PMS5003;69992;60.170;24.692;2023-05-07T15:26:21;1;1;
80639;PMS5003;69992;60.170;24.692;2023-05-07T15:28:46;2;2;
80639;PMS5003;69992;60.170;24.692;2023-05-07T15:31:12;1;1;
80639;PMS5003;69992;60.170;24.692;2023-05-07T15:33:37;2;1;
80639;PMS5003;69992;60.170;24.692;2023-05-07T15:36:03;2;2;
80639;PMS5003;69992;60.170;24.692;2023-05-07T15:38:28;1;1;
80639;PMS5003;69992;60.170;24.692;2023-05-07T15:40:54;1;1;
80639;PMS5003;69992;60.170;24.692;2023-05-07T15:43:19;3;2;
80639;PMS5003;69992;60.170;24.692;2023-05-07T15:45:45;3;3;
80639;PMS5003;69992;60.170;24.692;2023-05-07T15:48:10;2;2;
80639;PMS5003;69992;60.170;24.692;2023-05-07T15:50:36;2;2;
80639;PMS5003;69992;60.170;24.692;2023-05-07T15:53:01;4;4;
80639;PMS5003;69992;60.170;24.692;2023-05-07T15:55:27;1;1;
80639;PMS5003;69992;60.170;24.692;2023-05-07T15:57:52;3;2;
80639;PMS5003;69992;60.170;24.692;2023-05-07T16:00:18;1;1;
80639;PMS5003;69992;60.170;24.692;2023-05-07T16:02:43;2;2;
80639;PMS5003;69992;60.170;24.692;2023-05-07T16:05:09;1;1;
80639;PMS5003;69992;60.170;24.692;2023-05-07T16:07:34;2;2;
80639;PMS5003;69992;60.170;24.692;2023-05-07T16:10:00;2;2;
80639;PMS5003;69992;60.170;24.692;2023-05-07T16:12:25;1;1;
80639;PMS5003;69992;60.170;24.692;2023-05-07T16:14:51;1;1;
80639;PMS5003;69992;60.170;24.692;2023-05-07T16:17:16;2;2;
80639;PMS5003;69992;60.170;24.692;2023-05-07T16:19:42;2;2;
80639;PMS5003;69992;60.170;24.692;2023-05-07T16:22:07;2;2;
80639;PMS5003;69992;60.170;24.692;2023-05-07T16:24:33;3;2;
80639;PMS5003;69992;60.170;24.692;2023-05-07T16:26:59;2;2;
80639;PMS5003;69992;60.170;24.692;2023-05-07T16:29:24;4;4;
80639;PMS5003;69992;60.170;24.692;2023-05-07T16:31:51;2;2;
80639;PMS5003;69992;60.170;24.692;2023-05-07T16:34:15;2;2;
80639;PMS5003;69992;60.170;24.692;2023-05-07T16:36:41;2;1;